Time;durP1;ratioP1;P1;durP2;ratioP2;P2;SDS_P1;SDS_P2;PMS_P1;PMS_P2;Temp;Humidity;BMP_temperature;BMP_pressure;BME280_temperature;BME280_humidity;BME280_pressure;Samples;Min_cycle;Max_cycle;Signal;HPM_P1;HPM_P2
2022/11/10 00:00:00;;;;;;;0.30;0.30;;;;;;;;;;7385250;19;20460;-71
2022/11/10 00:02:26;;;;;;;0.30;0.30;;;;;;;;;;7383302;19;20113;-71
2022/11/10 00:04:51;;;;;;;0.30;0.30;;;;;;;;;;7382721;19;20118;-72
2022/11/10 00:07:16;;;;;;;0.30;0.30;;;;;;;;;;7384118;19;20125;-71
2022/11/10 00:09:41;;;;;;;0.20;0.20;;;;;;;;;;7383247;19;20102;-72
2022/11/10 00:12:07;;;;;;;1.37;1.27;;;;;;;;;;7381815;19;20134;-71
2022/11/10 00:17:16;;;;;;;0.20;0.20;;;;;;;;;;7383858;19;20116;-72
2022/11/10 00:19:41;;;;;;;0.27;0.27;;;;;;;;;;7383942;19;20109;-72
2022/11/10 00:22:06;;;;;;;0.20;0.20;;;;;;;;;;7383074;19;20101;-72
2022/11/10 00:24:32;;;;;;;0.20;0.20;;;;;;;;;;7383918;19;20432;-71
2022/11/10 00:26:57;;;;;;;0.33;0.33;;;;;;;;;;7381865;19;20117;-71
2022/11/10 00:29:22;;;;;;;0.23;0.23;;;;;;;;;;7383460;19;20101;-72
2022/11/10 00:31:48;;;;;;;0.20;0.20;;;;;;;;;;7380092;19;20126;-71
2022/11/10 00:34:15;;;;;;;0.23;0.23;;;;;;;;;;7382831;19;20567;-72
2022/11/10 00:36:41;;;;;;;0.20;0.20;;;;;;;;;;7380327;19;20121;-72
2022/11/10 00:39:06;;;;;;;0.27;0.27;;;;;;;;;;7385495;19;20101;-71
2022/11/10 00:41:32;;;;;;;0.30;0.30;;;;;;;;;;7387637;19;20109;-72
2022/11/10 00:43:57;;;;;;;0.20;0.20;;;;;;;;;;7389824;19;20109;-71
2022/11/10 00:46:22;;;;;;;0.40;0.40;;;;;;;;;;7387394;19;20121;-72
2022/11/10 00:48:48;;;;;;;0.30;0.30;;;;;;;;;;7387414;19;20101;-71
2022/11/10 00:51:24;;;;;;;0.30;0.30;;;;;;;;;;7390505;19;20668;-72
2022/11/10 00:53:49;;;;;;;0.20;0.20;;;;;;;;;;7390043;19;20128;-72
2022/11/10 00:56:15;;;;;;;0.30;0.30;;;;;;;;;;7388936;19;20627;-71
2022/11/10 00:58:40;;;;;;;0.30;0.30;;;;;;;;;;7389421;19;20101;-71
2022/11/10 01:01:06;;;;;;;0.30;0.30;;;;;;;;;;7388551;19;20124;-72
2022/11/10 01:03:32;;;;;;;0.40;0.40;;;;;;;;;;7388716;19;20109;-71
2022/11/10 01:05:57;;;;;;;0.20;0.20;;;;;;;;;;7388615;19;20579;-71
2022/11/10 01:08:23;;;;;;;0.30;0.30;;;;;;;;;;7387284;19;20117;-71
2022/11/10 01:10:48;;;;;;;0.20;0.20;;;;;;;;;;7384151;19;20168;-72
2022/11/10 01:13:13;;;;;;;0.30;0.30;;;;;;;;;;7381454;19;20173;-71
2022/11/10 01:15:40;;;;;;;0.50;0.50;;;;;;;;;;7384485;19;20200;-72
2022/11/10 01:18:06;;;;;;;0.30;0.30;;;;;;;;;;7387359;19;20120;-72
2022/11/10 01:20:34;;;;;;;0.20;0.20;;;;;;;;;;7389830;19;20608;-72
2022/11/10 01:23:00;;;;;;;0.30;0.30;;;;;;;;;;7387862;19;20138;-72
2022/11/10 01:25:25;;;;;;;0.30;0.30;;;;;;;;;;7387477;19;20641;-72
2022/11/10 01:27:51;;;;;;;0.30;0.30;;;;;;;;;;7388004;19;20105;-71
2022/11/10 01:30:17;;;;;;;0.20;0.20;;;;;;;;;;7385922;19;20117;-71
2022/11/10 01:32:42;;;;;;;0.20;0.20;;;;;;;;;;7386723;19;20109;-72
2022/11/10 01:35:08;;;;;;;0.30;0.30;;;;;;;;;;7387017;19;20131;-72
2022/11/10 01:37:33;;;;;;;0.20;0.20;;;;;;;;;;7385096;19;20452;-71
2022/11/10 01:39:59;;;;;;;0.20;0.20;;;;;;;;;;7385295;19;20548;-72
2022/11/10 01:42:40;;;;;;;0.30;0.30;;;;;;;;;;7386801;19;20197;-71
2022/11/10 01:45:21;;;;;;;0.30;0.30;;;;;;;;;;7386046;19;20160;-72
2022/11/10 01:47:47;;;;;;;0.20;0.20;;;;;;;;;;7389179;19;20109;-72
2022/11/10 01:50:13;;;;;;;0.20;0.20;;;;;;;;;;7386304;19;20614;-72
2022/11/10 01:52:38;;;;;;;0.30;0.30;;;;;;;;;;7384739;19;20106;-72
2022/11/10 01:55:04;;;;;;;0.30;0.30;;;;;;;;;;7387307;19;20112;-71
2022/11/10 01:57:29;;;;;;;0.30;0.30;;;;;;;;;;7388993;19;20148;-72
2022/11/10 01:59:54;;;;;;;0.20;0.20;;;;;;;;;;7387251;19;20109;-71
2022/11/10 02:02:24;;;;;;;0.30;0.30;;;;;;;;;;7385288;19;20109;-72
2022/11/10 02:04:50;;;;;;;0.30;0.30;;;;;;;;;;7385756;19;20105;-71
2022/11/10 02:07:16;;;;;;;0.30;0.30;;;;;;;;;;7380716;19;20121;-72
2022/11/10 02:09:41;;;;;;;0.30;0.30;;;;;;;;;;7380149;19;20105;-71
2022/11/10 02:12:06;;;;;;;0.30;0.30;;;;;;;;;;7374797;19;20134;-71
2022/11/10 02:14:31;;;;;;;0.20;0.20;;;;;;;;;;7382006;19;20204;-71
2022/11/10 02:16:57;;;;;;;0.30;0.30;;;;;;;;;;7376100;19;20113;-71
2022/11/10 02:19:25;;;;;;;0.70;0.70;;;;;;;;;;7382994;19;20173;-71
2022/11/10 02:21:50;;;;;;;0.30;0.30;;;;;;;;;;7377482;19;20653;-71
2022/11/10 02:24:16;;;;;;;0.40;0.40;;;;;;;;;;7378297;19;20113;-72
2022/11/10 02:27:08;;;;;;;0.20;0.20;;;;;;;;;;7378429;19;20125;-71
2022/11/10 02:29:33;;;;;;;0.30;0.30;;;;;;;;;;7379457;19;20136;-71
2022/11/10 02:31:58;;;;;;;0.20;0.20;;;;;;;;;;7371802;19;20129;-72
2022/11/10 02:34:24;;;;;;;0.30;0.30;;;;;;;;;;7379413;19;20109;-71
2022/11/10 02:36:49;;;;;;;0.30;0.30;;;;;;;;;;7374149;19;20117;-72
2022/11/10 02:39:14;;;;;;;0.20;0.20;;;;;;;;;;7374429;19;20477;-72
2022/11/10 02:41:40;;;;;;;0.30;0.30;;;;;;;;;;7379285;19;20133;-71
2022/11/10 02:44:05;;;;;;;0.30;0.30;;;;;;;;;;7382380;19;20168;-71
2022/11/10 02:46:31;;;;;;;0.30;0.30;;;;;;;;;;7380046;19;20537;-72
2022/11/10 02:48:56;;;;;;;0.20;0.20;;;;;;;;;;7376650;19;20105;-72
2022/11/10 02:51:21;;;;;;;0.23;0.23;;;;;;;;;;7377555;19;20117;-72
2022/11/10 02:53:48;;;;;;;0.30;0.30;;;;;;;;;;7376122;19;20129;-71
2022/11/10 02:56:14;;;;;;;0.20;0.20;;;;;;;;;;7377497;19;20125;-71
2022/11/10 02:58:39;;;;;;;0.30;0.30;;;;;;;;;;7384147;19;20144;-72
2022/11/10 03:01:05;;;;;;;0.83;0.83;;;;;;;;;;7376447;19;20484;-72
2022/11/10 03:03:31;;;;;;;0.30;0.30;;;;;;;;;;7379106;19;20112;-71
2022/11/10 03:05:56;;;;;;;0.30;0.30;;;;;;;;;;7375483;19;20149;-71
2022/11/10 03:08:21;;;;;;;0.20;0.20;;;;;;;;;;7376779;19;20124;-72
2022/11/10 03:10:47;;;;;;;0.30;0.30;;;;;;;;;;7382374;19;20486;-72
2022/11/10 03:13:12;;;;;;;0.40;0.40;;;;;;;;;;7384344;19;20105;-73
2022/11/10 03:15:37;;;;;;;0.30;0.30;;;;;;;;;;7384368;19;20565;-71
2022/11/10 03:18:04;;;;;;;0.37;0.37;;;;;;;;;;7384180;19;20097;-72
2022/11/10 03:20:29;;;;;;;0.30;0.30;;;;;;;;;;7384319;19;20097;-71
2022/11/10 03:23:00;;;;;;;0.27;0.27;;;;;;;;;;7384275;19;20277;-71
2022/11/10 03:25:25;;;;;;;0.30;0.30;;;;;;;;;;7386399;19;20508;-72
2022/11/10 03:27:50;;;;;;;0.30;0.30;;;;;;;;;;7383027;19;20116;-72
2022/11/10 03:30:15;;;;;;;0.30;0.30;;;;;;;;;;7384361;19;20107;-72
2022/11/10 03:32:41;;;;;;;0.20;0.20;;;;;;;;;;7384315;19;20105;-71
2022/11/10 03:35:07;;;;;;;0.30;0.30;;;;;;;;;;7384840;19;20176;-73
2022/11/10 03:37:32;;;;;;;0.20;0.20;;;;;;;;;;7385346;19;20126;-72
2022/11/10 03:39:57;;;;;;;0.30;0.30;;;;;;;;;;7384661;19;20131;-71
2022/11/10 03:42:23;;;;;;;0.30;0.30;;;;;;;;;;7383541;19;20144;-70
2022/11/10 03:44:48;;;;;;;0.20;0.20;;;;;;;;;;7383312;19;20117;-71
2022/11/10 03:47:13;;;;;;;0.20;0.20;;;;;;;;;;7383740;19;20193;-71
2022/11/10 03:49:39;;;;;;;0.20;0.20;;;;;;;;;;7384447;19;20113;-72
2022/11/10 03:52:04;;;;;;;0.23;0.23;;;;;;;;;;7385810;19;20106;-72
2022/11/10 03:54:29;;;;;;;0.30;0.30;;;;;;;;;;7385468;19;20111;-71
2022/11/10 03:56:54;;;;;;;0.30;0.30;;;;;;;;;;7382059;19;20124;-71
2022/11/10 03:59:20;;;;;;;0.20;0.20;;;;;;;;;;7382693;19;20117;-71
2022/11/10 04:01:45;;;;;;;0.20;0.20;;;;;;;;;;7382895;19;20115;-72
2022/11/10 04:09:38;;;;;;;0.20;0.20;;;;;;;;;;7381633;19;20120;-72
2022/11/10 04:17:32;;;;;;;0.30;0.30;;;;;;;;;;7390593;19;20147;-72
2022/11/10 04:19:58;;;;;;;0.20;0.20;;;;;;;;;;7389236;19;20106;-73
2022/11/10 04:25:07;;;;;;;0.30;0.30;;;;;;;;;;7392134;19;20207;-71
2022/11/10 04:27:32;;;;;;;0.30;0.30;;;;;;;;;;7388320;19;20110;-72
2022/11/10 04:29:58;;;;;;;0.20;0.20;;;;;;;;;;7390484;19;20106;-72
2022/11/10 04:32:23;;;;;;;0.30;0.30;;;;;;;;;;7389591;19;20128;-71
2022/11/10 04:34:48;;;;;;;0.30;0.30;;;;;;;;;;7391979;19;20547;-71
2022/11/10 04:37:13;;;;;;;0.20;0.20;;;;;;;;;;7389917;19;20117;-72
2022/11/10 04:39:39;;;;;;;0.20;0.20;;;;;;;;;;7391336;19;20109;-72
2022/11/10 04:42:04;;;;;;;0.30;0.30;;;;;;;;;;7389116;19;20645;-71
2022/11/10 04:44:29;;;;;;;0.30;0.30;;;;;;;;;;7390560;19;20605;-71
2022/11/10 04:46:55;;;;;;;0.20;0.20;;;;;;;;;;7386549;19;20701;-71
2022/11/10 04:49:20;;;;;;;0.20;0.20;;;;;;;;;;7390065;19;20589;-73
2022/11/10 04:51:45;;;;;;;0.30;0.30;;;;;;;;;;7388742;19;20201;-72
2022/11/10 04:54:11;;;;;;;0.30;0.30;;;;;;;;;;7389622;19;20125;-72
2022/11/10 04:56:36;;;;;;;0.20;0.20;;;;;;;;;;7386974;19;20160;-71
2022/11/10 04:59:02;;;;;;;0.30;0.30;;;;;;;;;;7388886;19;20512;-71
2022/11/10 05:01:27;;;;;;;0.30;0.30;;;;;;;;;;7388664;19;20161;-73
2022/11/10 05:03:53;;;;;;;0.20;0.20;;;;;;;;;;7386340;19;20113;-71
2022/11/10 05:06:19;;;;;;;0.30;0.30;;;;;;;;;;7385935;19;20176;-71
2022/11/10 05:08:44;;;;;;;0.30;0.30;;;;;;;;;;7385958;19;20113;-71
2022/11/10 05:11:11;;;;;;;0.20;0.20;;;;;;;;;;7388086;19;20171;-71
2022/11/10 05:13:36;;;;;;;0.53;0.53;;;;;;;;;;7388294;19;20173;-72
2022/11/10 05:16:02;;;;;;;0.20;0.20;;;;;;;;;;7384162;19;20501;-71
2022/11/10 05:18:28;;;;;;;0.20;0.20;;;;;;;;;;7383259;19;20117;-71
2022/11/10 05:20:53;;;;;;;0.20;0.20;;;;;;;;;;7388606;19;20690;-71
2022/11/10 05:23:37;;;;;;;0.30;0.30;;;;;;;;;;7390295;19;20106;-71
2022/11/10 05:26:15;;;;;;;0.20;0.20;;;;;;;;;;7390016;19;20121;-72
2022/11/10 05:28:42;;;;;;;0.20;0.20;;;;;;;;;;7384478;19;20106;-73
2022/11/10 05:31:08;;;;;;;0.30;0.30;;;;;;;;;;7385748;19;20653;-73
2022/11/10 05:33:33;;;;;;;0.30;0.30;;;;;;;;;;7384775;19;20125;-71
2022/11/10 05:35:59;;;;;;;0.20;0.20;;;;;;;;;;7383537;19;20149;-71
2022/11/10 05:38:24;;;;;;;0.20;0.20;;;;;;;;;;7384043;19;20176;-72
2022/11/10 05:40:49;;;;;;;0.30;0.30;;;;;;;;;;7386242;19;20224;-71
2022/11/10 05:43:15;;;;;;;0.30;0.30;;;;;;;;;;7386678;19;20109;-71
2022/11/10 05:45:40;;;;;;;0.30;0.30;;;;;;;;;;7381538;19;20125;-71
2022/11/10 05:48:06;;;;;;;0.20;0.20;;;;;;;;;;7386042;19;20176;-71
2022/11/10 05:50:31;;;;;;;0.20;0.20;;;;;;;;;;7383942;19;20117;-72
2022/11/10 05:52:56;;;;;;;0.20;0.20;;;;;;;;;;7379957;19;20133;-72
2022/11/10 05:55:24;;;;;;;0.30;0.30;;;;;;;;;;7388280;19;20587;-72
2022/11/10 05:57:51;;;;;;;0.20;0.20;;;;;;;;;;7387855;19;20101;-72
2022/11/10 06:00:20;;;;;;;0.20;0.20;;;;;;;;;;7383873;19;20122;-72
2022/11/10 06:02:58;;;;;;;0.20;0.20;;;;;;;;;;7384475;19;20113;-71
2022/11/10 06:05:23;;;;;;;0.20;0.20;;;;;;;;;;7377825;19;20445;-72
2022/11/10 06:07:49;;;;;;;0.20;0.20;;;;;;;;;;7382353;19;20594;-71
2022/11/10 06:10:14;;;;;;;0.27;0.27;;;;;;;;;;7386962;19;20121;-71
2022/11/10 06:12:39;;;;;;;0.30;0.30;;;;;;;;;;7386223;19;20125;-71
2022/11/10 06:15:05;;;;;;;0.30;0.30;;;;;;;;;;7384011;19;20571;-72
2022/11/10 06:17:31;;;;;;;0.33;0.33;;;;;;;;;;7387080;19;20597;-71
2022/11/10 06:19:56;;;;;;;0.27;0.27;;;;;;;;;;7379524;19;20146;-71
2022/11/10 06:22:21;;;;;;;0.20;0.20;;;;;;;;;;7380649;19;20591;-73
2022/11/10 06:24:46;;;;;;;0.20;0.20;;;;;;;;;;7387623;19;20105;-71
2022/11/10 06:27:12;;;;;;;0.20;0.20;;;;;;;;;;7385924;19;20128;-72
2022/11/10 06:29:37;;;;;;;0.20;0.20;;;;;;;;;;7381117;19;20201;-71
2022/11/10 06:32:02;;;;;;;0.30;0.30;;;;;;;;;;7381203;19;20097;-72
2022/11/10 06:34:28;;;;;;;0.53;0.53;;;;;;;;;;7376857;19;20101;-72
2022/11/10 06:36:53;;;;;;;0.20;0.20;;;;;;;;;;7377109;19;20149;-72
2022/11/10 06:39:18;;;;;;;0.20;0.20;;;;;;;;;;7384319;19;20112;-72
2022/11/10 06:41:44;;;;;;;0.30;0.30;;;;;;;;;;7378790;19;20611;-72
2022/11/10 06:44:10;;;;;;;0.30;0.30;;;;;;;;;;7381950;19;20166;-71
2022/11/10 06:46:36;;;;;;;0.20;0.20;;;;;;;;;;7371441;19;20514;-72
2022/11/10 06:49:01;;;;;;;0.20;0.20;;;;;;;;;;7370202;19;20113;-72
2022/11/10 06:51:27;;;;;;;0.20;0.20;;;;;;;;;;7374505;19;20125;-72
2022/11/10 06:53:52;;;;;;;0.23;0.23;;;;;;;;;;7375417;19;20169;-73
2022/11/10 06:56:17;;;;;;;0.20;0.20;;;;;;;;;;7378100;19;20448;-72
2022/11/10 06:58:42;;;;;;;0.30;0.30;;;;;;;;;;7380751;19;20590;-72
2022/11/10 07:01:08;;;;;;;0.20;0.20;;;;;;;;;;7377374;19;20136;-71
2022/11/10 07:03:34;;;;;;;0.20;0.20;;;;;;;;;;7377298;19;20575;-72
2022/11/10 07:06:00;;;;;;;0.20;0.20;;;;;;;;;;7377041;19;20669;-72
2022/11/10 07:08:25;;;;;;;0.20;0.20;;;;;;;;;;7372910;19;20101;-72
2022/11/10 07:10:52;;;;;;;0.93;0.80;;;;;;;;;;7376329;19;20534;-72
2022/11/10 07:13:17;;;;;;;0.20;0.20;;;;;;;;;;7382181;19;20105;-72
2022/11/10 07:15:43;;;;;;;0.30;0.30;;;;;;;;;;7380905;19;20581;-72
2022/11/10 07:18:08;;;;;;;0.20;0.20;;;;;;;;;;7383117;19;20483;-71
2022/11/10 07:20:34;;;;;;;0.20;0.20;;;;;;;;;;7381781;19;20614;-71
2022/11/10 07:23:01;;;;;;;0.20;0.20;;;;;;;;;;7381098;19;20101;-72
2022/11/10 07:25:28;;;;;;;0.20;0.20;;;;;;;;;;7382989;19;20113;-71
2022/11/10 07:27:59;;;;;;;0.20;0.20;;;;;;;;;;7381239;19;20101;-71
2022/11/10 07:30:28;;;;;;;0.30;0.30;;;;;;;;;;7382191;19;20500;-72
2022/11/10 07:33:01;;;;;;;0.40;0.40;;;;;;;;;;7381610;19;20121;-71
2022/11/10 07:35:29;;;;;;;0.20;0.20;;;;;;;;;;7380620;19;20126;-71
2022/11/10 07:37:59;;;;;;;0.40;0.40;;;;;;;;;;7381477;19;20117;-71
2022/11/10 07:40:25;;;;;;;0.20;0.20;;;;;;;;;;7381633;19;20144;-72
2022/11/10 07:42:50;;;;;;;0.20;0.20;;;;;;;;;;7382508;19;20570;-73
2022/11/10 07:45:15;;;;;;;0.20;0.20;;;;;;;;;;7383638;19;20139;-72
2022/11/10 07:47:41;;;;;;;0.20;0.20;;;;;;;;;;7382333;19;20097;-71
2022/11/10 07:50:06;;;;;;;0.20;0.20;;;;;;;;;;7383927;19;20141;-71
2022/11/10 07:52:32;;;;;;;0.20;0.20;;;;;;;;;;7386536;19;20121;-72
2022/11/10 07:54:57;;;;;;;0.20;0.20;;;;;;;;;;7387506;19;20124;-72
2022/11/10 07:57:22;;;;;;;0.20;0.20;;;;;;;;;;7389096;19;20121;-71
2022/11/10 07:59:48;;;;;;;0.20;0.20;;;;;;;;;;7389545;19;20578;-71
2022/11/10 08:02:13;;;;;;;0.20;0.20;;;;;;;;;;7390345;19;20452;-71
2022/11/10 08:04:38;;;;;;;0.30;0.30;;;;;;;;;;7389212;19;20100;-71
2022/11/10 08:07:04;;;;;;;0.20;0.20;;;;;;;;;;7386202;19;20121;-71
2022/11/10 08:09:29;;;;;;;0.20;0.20;;;;;;;;;;7385291;19;20105;-71
2022/11/10 11:10:36;;;;;;;;;;;;;;;;;;3802179;19;2201033573;31
2022/11/10 11:13:13;;;;;;;0.20;0.20;;;;;;;;;;7385877;19;20613;-71
2022/11/10 11:15:38;;;;;;;0.20;0.20;;;;;;;;;;7385737;19;20132;-71
2022/11/10 11:18:12;;;;;;;0.30;0.30;;;;;;;;;;7388067;19;20102;-71
2022/11/10 11:20:45;;;;;;;0.20;0.20;;;;;;;;;;7385881;19;20602;-71
2022/11/10 11:23:23;;;;;;;0.65;0.65;;;;;;;;;;7385651;19;20109;-71
2022/11/10 11:25:49;;;;;;;0.30;0.30;;;;;;;;;;7385560;19;20139;-71
2022/11/10 11:28:24;;;;;;;0.30;0.30;;;;;;;;;;7387205;19;20597;-71
2022/11/10 11:31:04;;;;;;;0.30;0.30;;;;;;;;;;7386374;19;20125;-71
2022/11/10 11:33:45;;;;;;;0.30;0.30;;;;;;;;;;7384639;19;20481;-71
2022/11/10 11:36:15;;;;;;;0.30;0.30;;;;;;;;;;7385536;19;20129;-70
2022/11/10 11:39:09;;;;;;;0.30;0.30;;;;;;;;;;7386870;19;20113;-71
2022/11/10 11:41:45;;;;;;;0.20;0.20;;;;;;;;;;7384345;19;20117;-71
2022/11/10 11:44:22;;;;;;;0.30;0.30;;;;;;;;;;7387509;19;20120;-71
2022/11/10 11:47:30;;;;;;;0.35;0.35;;;;;;;;;;7385280;19;20124;-71
2022/11/10 11:50:05;;;;;;;0.30;0.30;;;;;;;;;;7385460;19;20587;-71
2022/11/10 11:52:44;;;;;;;0.30;0.30;;;;;;;;;;7386022;19;20136;-71
2022/11/10 11:55:15;;;;;;;0.40;0.40;;;;;;;;;;7386410;19;20192;-71
2022/11/10 11:57:46;;;;;;;0.30;0.30;;;;;;;;;;7386926;19;20146;-71
2022/11/10 12:00:14;;;;;;;0.52;0.52;;;;;;;;;;7387675;19;20109;-70
2022/11/10 12:02:54;;;;;;;0.60;0.60;;;;;;;;;;7384547;19;20105;-71
2022/11/10 12:05:47;;;;;;;1.00;1.00;;;;;;;;;;7386652;19;20209;-71
2022/11/10 12:08:22;;;;;;;0.30;0.30;;;;;;;;;;7387088;19;20449;-71
2022/11/10 12:10:56;;;;;;;0.30;0.30;;;;;;;;;;7384366;19;20113;-71
2022/11/10 12:13:40;;;;;;;0.30;0.30;;;;;;;;;;7382152;19;20116;-71
2022/11/10 12:16:08;;;;;;;0.50;0.50;;;;;;;;;;7384676;19;20141;-71
2022/11/10 12:18:36;;;;;;;0.20;0.20;;;;;;;;;;7386467;19;20463;-71
2022/11/10 12:21:24;;;;;;;0.30;0.30;;;;;;;;;;7384892;19;20109;-71
2022/11/10 12:24:02;;;;;;;0.30;0.30;;;;;;;;;;7384144;19;20450;-71
2022/11/10 12:26:50;;;;;;;0.30;0.30;;;;;;;;;;7382713;19;20156;-71
2022/11/10 12:29:36;;;;;;;0.30;0.30;;;;;;;;;;7384260;19;20121;-71
2022/11/10 12:32:24;;;;;;;0.30;0.30;;;;;;;;;;7383457;19;20144;-71
2022/11/10 12:34:53;;;;;;;0.40;0.40;;;;;;;;;;7383638;19;20447;-71
2022/11/10 12:37:34;;;;;;;0.28;0.28;;;;;;;;;;7391823;19;20121;-71
2022/11/10 12:40:02;;;;;;;0.30;0.30;;;;;;;;;;7391976;19;20117;-71
2022/11/10 12:42:29;;;;;;;0.60;0.60;;;;;;;;;;7392381;19;20128;-71
2022/11/10 12:44:57;;;;;;;0.30;0.30;;;;;;;;;;7391186;19;20113;-70
2022/11/10 12:47:26;;;;;;;0.40;0.40;;;;;;;;;;7391078;19;20132;-71
2022/11/10 12:50:23;;;;;;;0.30;0.30;;;;;;;;;;7389180;19;20117;-71
2022/11/10 12:52:52;;;;;;;0.40;0.40;;;;;;;;;;7389491;19;20587;-71
2022/11/10 12:55:20;;;;;;;0.32;0.32;;;;;;;;;;7390055;19;20125;-70
2022/11/10 12:57:45;;;;;;;0.30;0.30;;;;;;;;;;7390667;19;20105;-71
2022/11/10 13:00:36;;;;;;;0.28;0.28;;;;;;;;;;7390430;19;20124;-70
2022/11/10 13:03:01;;;;;;;1.35;0.40;;;;;;;;;;7390506;19;20120;-71
2022/11/10 13:05:36;;;;;;;0.30;0.30;;;;;;;;;;7389695;19;20145;-71
2022/11/10 13:08:15;;;;;;;0.20;0.20;;;;;;;;;;7391143;19;20148;-71
2022/11/10 13:11:18;;;;;;;1.55;0.85;;;;;;;;;;7387917;19;20129;-71
2022/11/10 13:13:56;;;;;;;0.20;0.20;;;;;;;;;;7390254;19;20136;-71
2022/11/10 13:16:40;;;;;;;0.30;0.30;;;;;;;;;;7388588;19;20125;-71
2022/11/10 13:19:10;;;;;;;0.30;0.30;;;;;;;;;;7390343;19;20132;-71
2022/11/10 13:21:50;;;;;;;0.20;0.20;;;;;;;;;;7389857;19;20125;-71
2022/11/10 13:24:27;;;;;;;0.30;0.30;;;;;;;;;;7392514;19;20137;-71
2022/11/10 13:26:54;;;;;;;0.63;0.63;;;;;;;;;;7387674;19;20643;-71
2022/11/10 13:29:42;;;;;;;1.42;0.85;;;;;;;;;;7390608;19;20120;-71
2022/11/10 13:32:07;;;;;;;0.30;0.30;;;;;;;;;;7390277;19;20109;-71
2022/11/10 13:34:37;;;;;;;0.30;0.30;;;;;;;;;;7391696;19;20116;-71
2022/11/10 13:37:34;;;;;;;0.32;0.32;;;;;;;;;;7387367;19;20595;-71
2022/11/10 13:40:17;;;;;;;0.30;0.30;;;;;;;;;;7391160;19;20121;-71
2022/11/10 13:42:57;;;;;;;0.30;0.30;;;;;;;;;;7390558;19;20113;-71
2022/11/10 13:45:27;;;;;;;0.30;0.30;;;;;;;;;;7390381;19;20131;-71
2022/11/10 13:47:57;;;;;;;0.43;0.43;;;;;;;;;;7386104;19;20602;-71
2022/11/10 13:50:31;;;;;;;0.30;0.30;;;;;;;;;;7388299;19;20121;-70
2022/11/10 13:53:10;;;;;;;0.45;0.45;;;;;;;;;;7390220;19;20599;-71
2022/11/10 13:55:46;;;;;;;0.38;0.38;;;;;;;;;;7388589;19;20478;-71
2022/11/10 13:58:40;;;;;;;0.30;0.30;;;;;;;;;;7389760;19;20116;-71
2022/11/10 14:01:17;;;;;;;0.30;0.30;;;;;;;;;;7387869;19;20141;-70
2022/11/10 14:03:46;;;;;;;0.30;0.30;;;;;;;;;;7390124;19;20579;-71
2022/11/10 14:06:17;;;;;;;0.38;0.38;;;;;;;;;;7389287;19;20595;-71
2022/11/10 14:09:20;;;;;;;0.30;0.30;;;;;;;;;;7387487;19;20230;-71
2022/11/10 14:11:48;;;;;;;0.30;0.30;;;;;;;;;;7388368;19;20113;-71
2022/11/10 14:14:27;;;;;;;0.25;0.25;;;;;;;;;;7388619;19;20154;-70
2022/11/10 14:16:53;;;;;;;0.63;0.63;;;;;;;;;;7388203;19;20129;-70
2022/11/10 14:19:38;;;;;;;0.20;0.20;;;;;;;;;;7388164;19;20618;-71
2022/11/10 14:22:27;;;;;;;0.30;0.30;;;;;;;;;;7386871;19;20506;-70
2022/11/10 14:25:05;;;;;;;0.30;0.30;;;;;;;;;;7388185;19;20150;-70
2022/11/10 14:27:35;;;;;;;0.20;0.20;;;;;;;;;;7388266;19;20105;-70
2022/11/10 14:30:23;;;;;;;0.30;0.30;;;;;;;;;;7386139;19;20105;-69
2022/11/10 14:33:10;;;;;;;0.30;0.30;;;;;;;;;;7388045;19;20135;-69
2022/11/10 14:35:47;;;;;;;0.20;0.20;;;;;;;;;;7388199;19;20153;-70
2022/11/10 14:38:21;;;;;;;0.30;0.30;;;;;;;;;;7387619;19;21105;-70
2022/11/10 14:40:47;;;;;;;0.30;0.30;;;;;;;;;;7388057;19;20105;-70
2022/11/10 14:43:36;;;;;;;0.30;0.30;;;;;;;;;;7385958;19;20169;-70
2022/11/10 14:46:03;;;;;;;0.57;0.47;;;;;;;;;;7386054;19;20128;-70
2022/11/10 14:48:31;;;;;;;0.20;0.20;;;;;;;;;;7387576;19;20130;-70
2022/11/10 14:51:05;;;;;;;0.30;0.30;;;;;;;;;;7386513;19;20568;-70
2022/11/10 14:53:34;;;;;;;0.30;0.30;;;;;;;;;;7386529;19;20462;-69
2022/11/10 14:56:01;;;;;;;0.30;0.30;;;;;;;;;;7386069;19;20257;-70
2022/11/10 14:58:34;;;;;;;0.22;0.22;;;;;;;;;;7385669;19;20180;-70
2022/11/10 15:01:02;;;;;;;0.40;0.40;;;;;;;;;;7386786;19;20113;-70
2022/11/10 15:03:38;;;;;;;0.30;0.30;;;;;;;;;;7385639;19;20165;-70
2022/11/10 15:06:06;;;;;;;0.30;0.30;;;;;;;;;;7387561;19;20526;-70
2022/11/10 15:08:32;;;;;;;0.30;0.30;;;;;;;;;;7387098;19;20236;-69
2022/11/10 15:10:57;;;;;;;0.30;0.30;;;;;;;;;;7384302;19;20559;-70
2022/11/10 15:13:25;;;;;;;0.30;0.30;;;;;;;;;;7386785;19;20114;-69
2022/11/10 15:15:52;;;;;;;0.30;0.30;;;;;;;;;;7387587;19;20163;-70
2022/11/10 15:18:28;;;;;;;0.30;0.30;;;;;;;;;;7383438;19;20598;-70
2022/11/10 15:21:01;;;;;;;0.30;0.30;;;;;;;;;;7386215;19;20105;-70
2022/11/10 15:23:32;;;;;;;0.30;0.30;;;;;;;;;;7379594;19;20332;-70
2022/11/10 15:25:58;;;;;;;0.20;0.20;;;;;;;;;;7384491;19;20487;-70
2022/11/10 15:28:28;;;;;;;0.30;0.30;;;;;;;;;;7385626;19;20104;-70
2022/11/10 15:30:57;;;;;;;0.35;0.35;;;;;;;;;;7384269;19;20120;-70
2022/11/10 15:33:28;;;;;;;0.30;0.30;;;;;;;;;;7383940;19;20105;-70
2022/11/10 15:35:55;;;;;;;0.30;0.30;;;;;;;;;;7386334;19;20591;-70
2022/11/10 15:38:29;;;;;;;0.20;0.20;;;;;;;;;;7386233;19;20677;-70
2022/11/10 15:41:23;;;;;;;0.20;0.20;;;;;;;;;;7385576;19;20486;-70
2022/11/10 15:43:49;;;;;;;0.30;0.30;;;;;;;;;;7384282;19;20138;-70
2022/11/10 15:46:17;;;;;;;0.20;0.20;;;;;;;;;;7385102;19;20152;-70
2022/11/10 15:48:45;;;;;;;0.20;0.20;;;;;;;;;;7382385;19;20109;-70
2022/11/10 15:51:12;;;;;;;0.30;0.30;;;;;;;;;;7382498;19;20359;-70
2022/11/10 15:53:40;;;;;;;0.30;0.30;;;;;;;;;;7384256;19;20117;-70
2022/11/10 15:56:06;;;;;;;0.30;0.30;;;;;;;;;;7384176;19;20185;-69
2022/11/10 15:58:32;;;;;;;0.40;0.40;;;;;;;;;;7385016;19;20110;-70
2022/11/10 16:00:58;;;;;;;0.40;0.40;;;;;;;;;;7385308;19;20503;-70
2022/11/10 16:03:24;;;;;;;0.20;0.20;;;;;;;;;;7384190;19;20193;-70
2022/11/10 16:05:49;;;;;;;0.30;0.30;;;;;;;;;;7385615;19;20134;-70
2022/11/10 16:08:18;;;;;;;0.30;0.30;;;;;;;;;;7385728;19;20204;-70
2022/11/10 16:10:51;;;;;;;0.20;0.20;;;;;;;;;;7384028;19;20114;-70
2022/11/10 16:13:25;;;;;;;0.20;0.20;;;;;;;;;;7382076;19;20181;-70
2022/11/10 16:15:51;;;;;;;0.20;0.20;;;;;;;;;;7389230;19;20129;-70
2022/11/10 16:18:18;;;;;;;0.20;0.20;;;;;;;;;;7389520;19;20705;-70
2022/11/10 16:20:44;;;;;;;0.30;0.30;;;;;;;;;;7388298;19;20180;-70
2022/11/10 16:23:09;;;;;;;0.30;0.30;;;;;;;;;;7384929;19;20101;-70
2022/11/10 16:25:35;;;;;;;0.30;0.30;;;;;;;;;;7387495;19;20133;-70
2022/11/10 16:28:02;;;;;;;0.20;0.20;;;;;;;;;;7389743;19;20514;-70
2022/11/10 16:30:28;;;;;;;0.30;0.30;;;;;;;;;;7384574;19;20126;-70
2022/11/10 16:32:53;;;;;;;0.30;0.30;;;;;;;;;;7381525;19;20158;-69
2022/11/10 16:35:19;;;;;;;0.30;0.30;;;;;;;;;;7388844;19;20470;-70
2022/11/10 16:37:44;;;;;;;0.30;0.30;;;;;;;;;;7385255;19;20121;-71
2022/11/10 16:40:15;;;;;;;0.30;0.30;;;;;;;;;;7389427;19;20122;-70
2022/11/10 16:42:41;;;;;;;0.30;0.30;;;;;;;;;;7387420;19;20113;-71
2022/11/10 16:45:21;;;;;;;0.30;0.30;;;;;;;;;;7387528;19;20164;-70
2022/11/10 16:47:49;;;;;;;0.30;0.30;;;;;;;;;;7385693;19;20109;-73
2022/11/10 16:50:28;;;;;;;0.30;0.30;;;;;;;;;;7385772;19;20110;-73
2022/11/10 16:52:54;;;;;;;0.20;0.20;;;;;;;;;;7387006;19;20113;-72
2022/11/10 16:55:19;;;;;;;0.20;0.20;;;;;;;;;;7389000;19;20125;-72
2022/11/10 16:57:44;;;;;;;0.23;0.23;;;;;;;;;;7389892;19;20101;-72
2022/11/10 17:00:10;;;;;;;0.30;0.30;;;;;;;;;;7388754;19;20128;-71
2022/11/10 17:02:38;;;;;;;0.20;0.20;;;;;;;;;;7381327;19;20152;-71
2022/11/10 17:05:04;;;;;;;0.20;0.20;;;;;;;;;;7381171;19;20603;-73
2022/11/10 17:07:29;;;;;;;0.30;0.30;;;;;;;;;;7388271;19;20125;-71
2022/11/10 17:09:55;;;;;;;0.30;0.30;;;;;;;;;;7381092;19;20121;-72
2022/11/10 17:12:21;;;;;;;0.30;0.30;;;;;;;;;;7380782;19;20607;-72
2022/11/10 17:14:46;;;;;;;0.30;0.30;;;;;;;;;;7380709;19;20145;-71
2022/11/10 17:17:14;;;;;;;0.30;0.30;;;;;;;;;;7383896;19;20180;-71
2022/11/10 17:19:40;;;;;;;0.20;0.20;;;;;;;;;;7384133;19;20105;-72
2022/11/10 17:22:05;;;;;;;0.30;0.30;;;;;;;;;;7381838;19;20132;-72
2022/11/10 17:24:30;;;;;;;0.30;0.30;;;;;;;;;;7385530;19;20554;-73
2022/11/10 17:26:56;;;;;;;0.20;0.20;;;;;;;;;;7385970;19;20125;-72
2022/11/10 17:29:22;;;;;;;0.30;0.30;;;;;;;;;;7386925;19;20125;-72
2022/11/10 17:31:51;;;;;;;0.30;0.30;;;;;;;;;;7384887;19;20584;-71
2022/11/10 17:34:17;;;;;;;0.30;0.30;;;;;;;;;;7387232;19;20609;-72
2022/11/10 17:36:42;;;;;;;0.20;0.20;;;;;;;;;;7388666;19;20142;-72
2022/11/10 17:39:12;;;;;;;0.20;0.20;;;;;;;;;;7386110;19;20157;-72
2022/11/10 17:41:37;;;;;;;0.20;0.20;;;;;;;;;;7387735;19;20106;-71
2022/11/10 17:44:02;;;;;;;0.20;0.20;;;;;;;;;;7387244;19;20121;-72
2022/11/10 17:46:28;;;;;;;0.20;0.20;;;;;;;;;;7387483;19;20129;-72
2022/11/10 17:48:54;;;;;;;0.20;0.20;;;;;;;;;;7386219;19;20136;-72
2022/11/10 17:51:20;;;;;;;0.23;0.23;;;;;;;;;;7385608;19;20109;-72
2022/11/10 17:53:45;;;;;;;0.30;0.30;;;;;;;;;;7386600;19;20526;-71
2022/11/10 17:56:10;;;;;;;0.30;0.30;;;;;;;;;;7384264;19;20133;-72
2022/11/10 17:58:36;;;;;;;0.20;0.20;;;;;;;;;;7385864;19;20485;-72
2022/11/10 18:01:01;;;;;;;0.30;0.30;;;;;;;;;;7384172;19;20126;-72
2022/11/10 18:03:26;;;;;;;0.20;0.20;;;;;;;;;;7386056;19;20132;-72
2022/11/10 18:05:52;;;;;;;0.30;0.30;;;;;;;;;;7383095;19;20132;-72
2022/11/10 18:08:17;;;;;;;0.30;0.30;;;;;;;;;;7379743;19;20410;-71